sensor_id;sensor_type;location;lat;lon;timestamp;P1;durP1;ratioP1;P2;durP2;ratioP2
57309;SDS011;43153;50.984;18.204;2023-08-12T00:00:51;13.10;;;4.90;;
57309;SDS011;43153;50.984;18.204;2023-08-12T00:03:22;11.40;;;5.10;;
57309;SDS011;43153;50.984;18.204;2023-08-12T00:05:52;11.10;;;4.90;;
57309;SDS011;43153;50.984;18.204;2023-08-12T00:08:24;9.60;;;4.30;;
57309;SDS011;43153;50.984;18.204;2023-08-12T00:10:53;12.60;;;4.20;;
57309;SDS011;43153;50.984;18.204;2023-08-12T00:13:20;10.80;;;5.40;;
57309;SDS011;43153;50.984;18.204;2023-08-12T00:15:47;12.90;;;4.90;;
57309;SDS011;43153;50.984;18.204;2023-08-12T00:18:15;8.80;;;4.80;;
57309;SDS011;43153;50.984;18.204;2023-08-12T00:20:47;12.70;;;5.70;;
57309;SDS011;43153;50.984;18.204;2023-08-12T00:23:25;11.10;;;5.20;;
57309;SDS011;43153;50.984;18.204;2023-08-12T00:25:57;11.70;;;4.40;;
57309;SDS011;43153;50.984;18.204;2023-08-12T00:28:25;13.70;;;4.90;;
57309;SDS011;43153;50.984;18.204;2023-08-12T00:30:54;11.00;;;4.70;;
57309;SDS011;43153;50.984;18.204;2023-08-12T00:33:21;8.10;;;4.40;;
57309;SDS011;43153;50.984;18.204;2023-08-12T00:35:51;10.30;;;4.80;;
57309;SDS011;43153;50.984;18.204;2023-08-12T00:38:23;11.20;;;4.70;;
57309;SDS011;43153;50.984;18.204;2023-08-12T00:40:52;13.00;;;4.40;;
57309;SDS011;43153;50.984;18.204;2023-08-12T00:43:18;9.80;;;4.70;;
57309;SDS011;43153;50.984;18.204;2023-08-12T00:45:50;11.00;;;4.50;;
57309;SDS011;43153;50.984;18.204;2023-08-12T00:48:20;12.40;;;4.20;;
57309;SDS011;43153;50.984;18.204;2023-08-12T00:50:50;9.60;;;4.00;;
57309;SDS011;43153;50.984;18.204;2023-08-12T00:53:15;10.60;;;5.20;;
57309;SDS011;43153;50.984;18.204;2023-08-12T00:55:44;10.50;;;4.70;;
57309;SDS011;43153;50.984;18.204;2023-08-12T00:58:10;10.60;;;4.50;;
57309;SDS011;43153;50.984;18.204;2023-08-12T01:00:40;10.60;;;4.50;;
57309;SDS011;43153;50.984;18.204;2023-08-12T01:03:07;10.70;;;4.80;;
57309;SDS011;43153;50.984;18.204;2023-08-12T01:05:34;11.70;;;4.40;;
57309;SDS011;43153;50.984;18.204;2023-08-12T01:08:01;11.00;;;4.40;;
57309;SDS011;43153;50.984;18.204;2023-08-12T01:10:29;13.00;;;4.60;;
57309;SDS011;43153;50.984;18.204;2023-08-12T01:15:31;11.60;;;4.10;;
57309;SDS011;43153;50.984;18.204;2023-08-12T01:17:58;11.50;;;4.00;;
57309;SDS011;43153;50.984;18.204;2023-08-12T01:20:31;9.80;;;4.50;;
57309;SDS011;43153;50.984;18.204;2023-08-12T01:23:15;8.20;;;4.40;;
57309;SDS011;43153;50.984;18.204;2023-08-12T01:25:51;8.50;;;3.90;;
57309;SDS011;43153;50.984;18.204;2023-08-12T01:28:21;11.60;;;5.00;;
57309;SDS011;43153;50.984;18.204;2023-08-12T01:33:27;9.90;;;4.30;;
57309;SDS011;43153;50.984;18.204;2023-08-12T01:36:15;7.50;;;4.20;;
57309;SDS011;43153;50.984;18.204;2023-08-12T01:38:47;10.70;;;4.80;;
57309;SDS011;43153;50.984;18.204;2023-08-12T01:43:44;12.00;;;5.10;;
57309;SDS011;43153;50.984;18.204;2023-08-12T01:46:13;11.00;;;4.90;;
57309;SDS011;43153;50.984;18.204;2023-08-12T01:48:43;13.50;;;4.70;;
57309;SDS011;43153;50.984;18.204;2023-08-12T01:51:10;11.50;;;4.50;;
57309;SDS011;43153;50.984;18.204;2023-08-12T01:53:41;9.00;;;4.20;;
57309;SDS011;43153;50.984;18.204;2023-08-12T01:56:16;10.90;;;4.90;;
57309;SDS011;43153;50.984;18.204;2023-08-12T01:58:52;11.50;;;4.20;;
57309;SDS011;43153;50.984;18.204;2023-08-12T02:01:20;10.30;;;4.70;;
57309;SDS011;43153;50.984;18.204;2023-08-12T02:03:48;11.70;;;4.20;;
57309;SDS011;43153;50.984;18.204;2023-08-12T02:06:17;10.10;;;5.60;;
57309;SDS011;43153;50.984;18.204;2023-08-12T02:08:45;10.20;;;4.70;;
57309;SDS011;43153;50.984;18.204;2023-08-12T02:11:15;12.40;;;4.20;;
57309;SDS011;43153;50.984;18.204;2023-08-12T02:13:45;11.40;;;5.00;;
57309;SDS011;43153;50.984;18.204;2023-08-12T02:16:14;8.70;;;4.10;;
57309;SDS011;43153;50.984;18.204;2023-08-12T02:18:44;9.20;;;4.00;;
57309;SDS011;43153;50.984;18.204;2023-08-12T02:21:15;10.80;;;4.60;;
57309;SDS011;43153;50.984;18.204;2023-08-12T02:23:45;11.50;;;4.40;;
57309;SDS011;43153;50.984;18.204;2023-08-12T02:26:13;14.20;;;5.00;;
57309;SDS011;43153;50.984;18.204;2023-08-12T02:28:39;10.40;;;4.60;;
57309;SDS011;43153;50.984;18.204;2023-08-12T02:31:06;10.50;;;4.60;;
57309;SDS011;43153;50.984;18.204;2023-08-12T02:33:36;9.20;;;3.80;;
57309;SDS011;43153;50.984;18.204;2023-08-12T02:36:02;8.90;;;4.10;;
57309;SDS011;43153;50.984;18.204;2023-08-12T02:38:33;9.30;;;4.40;;
57309;SDS011;43153;50.984;18.204;2023-08-12T02:41:03;12.50;;;4.80;;
57309;SDS011;43153;50.984;18.204;2023-08-12T02:43:30;13.60;;;4.70;;
57309;SDS011;43153;50.984;18.204;2023-08-12T02:45:59;13.10;;;5.60;;
57309;SDS011;43153;50.984;18.204;2023-08-12T02:48:28;9.90;;;4.80;;
57309;SDS011;43153;50.984;18.204;2023-08-12T02:51:01;10.50;;;4.50;;
57309;SDS011;43153;50.984;18.204;2023-08-12T02:53:30;10.90;;;4.40;;
57309;SDS011;43153;50.984;18.204;2023-08-12T02:55:58;10.50;;;4.70;;
57309;SDS011;43153;50.984;18.204;2023-08-12T02:58:26;15.70;;;4.70;;
57309;SDS011;43153;50.984;18.204;2023-08-12T03:01:03;8.30;;;3.90;;
57309;SDS011;43153;50.984;18.204;2023-08-12T03:03:33;10.70;;;4.20;;
57309;SDS011;43153;50.984;18.204;2023-08-12T03:06:00;10.20;;;4.00;;
57309;SDS011;43153;50.984;18.204;2023-08-12T03:08:26;10.90;;;4.80;;
57309;SDS011;43153;50.984;18.204;2023-08-12T03:11:02;11.00;;;4.60;;
57309;SDS011;43153;50.984;18.204;2023-08-12T03:13:32;9.50;;;4.60;;
57309;SDS011;43153;50.984;18.204;2023-08-12T03:16:00;11.80;;;4.20;;
57309;SDS011;43153;50.984;18.204;2023-08-12T03:18:26;8.50;;;3.80;;
57309;SDS011;43153;50.984;18.204;2023-08-12T03:20:52;11.80;;;4.20;;
57309;SDS011;43153;50.984;18.204;2023-08-12T03:23:18;12.10;;;4.60;;
57309;SDS011;43153;50.984;18.204;2023-08-12T03:25:46;9.50;;;3.90;;
57309;SDS011;43153;50.984;18.204;2023-08-12T03:28:15;12.30;;;4.30;;
57309;SDS011;43153;50.984;18.204;2023-08-12T03:30:49;8.50;;;4.40;;
57309;SDS011;43153;50.984;18.204;2023-08-12T03:33:24;10.30;;;4.70;;
57309;SDS011;43153;50.984;18.204;2023-08-12T03:35:50;9.80;;;4.10;;
57309;SDS011;43153;50.984;18.204;2023-08-12T03:38:17;10.20;;;5.50;;
57309;SDS011;43153;50.984;18.204;2023-08-12T03:40:46;12.50;;;4.90;;
57309;SDS011;43153;50.984;18.204;2023-08-12T03:43:17;8.80;;;4.60;;
57309;SDS011;43153;50.984;18.204;2023-08-12T03:45:43;11.60;;;4.40;;
57309;SDS011;43153;50.984;18.204;2023-08-12T03:48:12;8.60;;;3.90;;
57309;SDS011;43153;50.984;18.204;2023-08-12T03:50:45;10.80;;;4.50;;
57309;SDS011;43153;50.984;18.204;2023-08-12T03:53:13;10.10;;;3.80;;
57309;SDS011;43153;50.984;18.204;2023-08-12T03:55:41;11.30;;;4.20;;
57309;SDS011;43153;50.984;18.204;2023-08-12T03:58:11;8.20;;;4.10;;
57309;SDS011;43153;50.984;18.204;2023-08-12T04:00:42;14.60;;;4.30;;
57309;SDS011;43153;50.984;18.204;2023-08-12T04:03:14;7.90;;;3.40;;
57309;SDS011;43153;50.984;18.204;2023-08-12T04:05:47;9.30;;;4.30;;
57309;SDS011;43153;50.984;18.204;2023-08-12T04:08:23;11.10;;;3.80;;
57309;SDS011;43153;50.984;18.204;2023-08-12T04:10:50;10.20;;;4.60;;
57309;SDS011;43153;50.984;18.204;2023-08-12T04:13:27;11.50;;;4.30;;
57309;SDS011;43153;50.984;18.204;2023-08-12T04:15:54;12.10;;;5.10;;
57309;SDS011;43153;50.984;18.204;2023-08-12T04:18:25;9.20;;;4.40;;
57309;SDS011;43153;50.984;18.204;2023-08-12T04:20:57;11.00;;;4.10;;
57309;SDS011;43153;50.984;18.204;2023-08-12T04:23:25;11.40;;;4.30;;
57309;SDS011;43153;50.984;18.204;2023-08-12T04:26:03;14.80;;;4.40;;
57309;SDS011;43153;50.984;18.204;2023-08-12T04:28:37;10.50;;;4.80;;
57309;SDS011;43153;50.984;18.204;2023-08-12T04:31:06;14.30;;;4.30;;
57309;SDS011;43153;50.984;18.204;2023-08-12T04:33:41;10.90;;;4.30;;
57309;SDS011;43153;50.984;18.204;2023-08-12T04:36:08;13.30;;;5.10;;
57309;SDS011;43153;50.984;18.204;2023-08-12T04:38:37;10.50;;;4.60;;
57309;SDS011;43153;50.984;18.204;2023-08-12T04:41:05;9.50;;;4.30;;
57309;SDS011;43153;50.984;18.204;2023-08-12T04:43:32;11.00;;;3.90;;
57309;SDS011;43153;50.984;18.204;2023-08-12T04:45:59;8.70;;;4.00;;
57309;SDS011;43153;50.984;18.204;2023-08-12T04:48:26;9.50;;;4.40;;
57309;SDS011;43153;50.984;18.204;2023-08-12T04:50:53;11.20;;;4.30;;
57309;SDS011;43153;50.984;18.204;2023-08-12T04:53:27;13.90;;;5.10;;
57309;SDS011;43153;50.984;18.204;2023-08-12T04:55:56;13.80;;;4.90;;
57309;SDS011;43153;50.984;18.204;2023-08-12T05:00:58;12.90;;;4.10;;
57309;SDS011;43153;50.984;18.204;2023-08-12T05:03:34;11.20;;;4.70;;
57309;SDS011;43153;50.984;18.204;2023-08-12T05:06:08;11.20;;;5.40;;
57309;SDS011;43153;50.984;18.204;2023-08-12T05:08:36;9.40;;;4.60;;
57309;SDS011;43153;50.984;18.204;2023-08-12T05:11:04;10.40;;;4.80;;
57309;SDS011;43153;50.984;18.204;2023-08-12T05:13:36;9.50;;;4.80;;
57309;SDS011;43153;50.984;18.204;2023-08-12T05:16:06;12.50;;;4.50;;
57309;SDS011;43153;50.984;18.204;2023-08-12T05:18:34;11.80;;;5.00;;
57309;SDS011;43153;50.984;18.204;2023-08-12T05:21:00;10.80;;;4.10;;
57309;SDS011;43153;50.984;18.204;2023-08-12T05:23:33;12.60;;;4.00;;
57309;SDS011;43153;50.984;18.204;2023-08-12T05:26:02;11.00;;;4.50;;
57309;SDS011;43153;50.984;18.204;2023-08-12T05:28:34;11.40;;;5.20;;
57309;SDS011;43153;50.984;18.204;2023-08-12T05:31:00;8.80;;;4.40;;
57309;SDS011;43153;50.984;18.204;2023-08-12T05:33:31;13.00;;;4.80;;
57309;SDS011;43153;50.984;18.204;2023-08-12T05:35:57;13.00;;;5.20;;
57309;SDS011;43153;50.984;18.204;2023-08-12T05:38:26;8.90;;;4.30;;
57309;SDS011;43153;50.984;18.204;2023-08-12T05:40:56;8.90;;;3.80;;
57309;SDS011;43153;50.984;18.204;2023-08-12T05:43:25;10.70;;;3.80;;
57309;SDS011;43153;50.984;18.204;2023-08-12T05:45:53;10.50;;;4.20;;
57309;SDS011;43153;50.984;18.204;2023-08-12T05:48:25;9.00;;;3.50;;
57309;SDS011;43153;50.984;18.204;2023-08-12T05:50:51;9.60;;;3.80;;
57309;SDS011;43153;50.984;18.204;2023-08-12T05:53:17;10.30;;;3.40;;
57309;SDS011;43153;50.984;18.204;2023-08-12T05:55:46;7.90;;;3.00;;
57309;SDS011;43153;50.984;18.204;2023-08-12T05:58:14;9.80;;;3.50;;
57309;SDS011;43153;50.984;18.204;2023-08-12T06:00:43;13.10;;;3.70;;
57309;SDS011;43153;50.984;18.204;2023-08-12T06:03:12;8.80;;;3.70;;
57309;SDS011;43153;50.984;18.204;2023-08-12T06:05:40;10.60;;;4.30;;
57309;SDS011;43153;50.984;18.204;2023-08-12T06:08:08;10.10;;;3.60;;
57309;SDS011;43153;50.984;18.204;2023-08-12T06:10:35;9.50;;;4.50;;
57309;SDS011;43153;50.984;18.204;2023-08-12T06:13:06;12.20;;;3.90;;
57309;SDS011;43153;50.984;18.204;2023-08-12T06:15:37;10.80;;;4.20;;
57309;SDS011;43153;50.984;18.204;2023-08-12T06:18:08;11.60;;;3.90;;
57309;SDS011;43153;50.984;18.204;2023-08-12T06:20:36;12.80;;;3.80;;
57309;SDS011;43153;50.984;18.204;2023-08-12T06:23:06;10.80;;;3.90;;
57309;SDS011;43153;50.984;18.204;2023-08-12T06:25:35;9.30;;;3.80;;
57309;SDS011;43153;50.984;18.204;2023-08-12T06:28:05;9.60;;;4.00;;
57309;SDS011;43153;50.984;18.204;2023-08-12T06:30:35;8.90;;;3.80;;
57309;SDS011;43153;50.984;18.204;2023-08-12T06:33:03;8.80;;;3.20;;
57309;SDS011;43153;50.984;18.204;2023-08-12T06:35:32;8.10;;;3.20;;
57309;SDS011;43153;50.984;18.204;2023-08-12T06:38:02;7.20;;;2.70;;
57309;SDS011;43153;50.984;18.204;2023-08-12T06:40:38;8.30;;;2.90;;
57309;SDS011;43153;50.984;18.204;2023-08-12T06:43:06;9.00;;;3.10;;
57309;SDS011;43153;50.984;18.204;2023-08-12T06:45:34;9.60;;;3.30;;
57309;SDS011;43153;50.984;18.204;2023-08-12T06:48:04;6.90;;;3.20;;
57309;SDS011;43153;50.984;18.204;2023-08-12T06:50:37;8.70;;;2.90;;
57309;SDS011;43153;50.984;18.204;2023-08-12T06:53:05;7.50;;;2.80;;
57309;SDS011;43153;50.984;18.204;2023-08-12T06:55:34;6.50;;;2.70;;
57309;SDS011;43153;50.984;18.204;2023-08-12T06:58:03;6.60;;;2.30;;
57309;SDS011;43153;50.984;18.204;2023-08-12T07:00:31;8.50;;;3.00;;
57309;SDS011;43153;50.984;18.204;2023-08-12T07:03:03;6.60;;;2.30;;
57309;SDS011;43153;50.984;18.204;2023-08-12T07:05:29;5.70;;;2.40;;
57309;SDS011;43153;50.984;18.204;2023-08-12T07:07:59;5.60;;;2.20;;
57309;SDS011;43153;50.984;18.204;2023-08-12T07:10:28;5.70;;;2.20;;
57309;SDS011;43153;50.984;18.204;2023-08-12T07:12:58;8.10;;;3.00;;
57309;SDS011;43153;50.984;18.204;2023-08-12T07:15:26;6.80;;;2.30;;
57309;SDS011;43153;50.984;18.204;2023-08-12T07:17:57;7.40;;;2.30;;
57309;SDS011;43153;50.984;18.204;2023-08-12T07:20:27;7.70;;;2.20;;
57309;SDS011;43153;50.984;18.204;2023-08-12T07:22:57;7.30;;;2.20;;
57309;SDS011;43153;50.984;18.204;2023-08-12T07:25:28;7.20;;;1.90;;
57309;SDS011;43153;50.984;18.204;2023-08-12T07:27:57;5.60;;;2.10;;
57309;SDS011;43153;50.984;18.204;2023-08-12T07:30:24;5.70;;;2.10;;
57309;SDS011;43153;50.984;18.204;2023-08-12T07:32:57;5.60;;;2.00;;
57309;SDS011;43153;50.984;18.204;2023-08-12T07:35:33;5.00;;;2.00;;
57309;SDS011;43153;50.984;18.204;2023-08-12T07:37:59;6.50;;;1.70;;
57309;SDS011;43153;50.984;18.204;2023-08-12T07:40:27;6.30;;;2.20;;
57309;SDS011;43153;50.984;18.204;2023-08-12T07:43:00;5.50;;;2.00;;
57309;SDS011;43153;50.984;18.204;2023-08-12T07:45:26;5.80;;;2.20;;
57309;SDS011;43153;50.984;18.204;2023-08-12T07:47:55;6.80;;;1.90;;
57309;SDS011;43153;50.984;18.204;2023-08-12T07:50:21;4.60;;;1.90;;
57309;SDS011;43153;50.984;18.204;2023-08-12T07:52:47;6.40;;;1.70;;
57309;SDS011;43153;50.984;18.204;2023-08-12T07:55:13;6.20;;;1.50;;
57309;SDS011;43153;50.984;18.204;2023-08-12T07:57:40;4.60;;;1.50;;
57309;SDS011;43153;50.984;18.204;2023-08-12T08:00:06;5.70;;;1.70;;
57309;SDS011;43153;50.984;18.204;2023-08-12T08:02:35;6.20;;;2.00;;
57309;SDS011;43153;50.984;18.204;2023-08-12T08:05:01;6.20;;;1.80;;
57309;SDS011;43153;50.984;18.204;2023-08-12T08:07:29;6.70;;;1.70;;
57309;SDS011;43153;50.984;18.204;2023-08-12T08:09:55;6.50;;;1.50;;
57309;SDS011;43153;50.984;18.204;2023-08-12T08:14:56;4.30;;;1.20;;
57309;SDS011;43153;50.984;18.204;2023-08-12T08:17:22;4.00;;;1.50;;
57309;SDS011;43153;50.984;18.204;2023-08-12T08:19:50;5.00;;;1.50;;
57309;SDS011;43153;50.984;18.204;2023-08-12T08:22:19;3.10;;;1.30;;
57309;SDS011;43153;50.984;18.204;2023-08-12T08:24:50;6.30;;;1.40;;
57309;SDS011;43153;50.984;18.204;2023-08-12T08:27:18;4.80;;;1.50;;
57309;SDS011;43153;50.984;18.204;2023-08-12T08:29:47;4.30;;;1.40;;
57309;SDS011;43153;50.984;18.204;2023-08-12T08:32:16;4.30;;;1.40;;
57309;SDS011;43153;50.984;18.204;2023-08-12T08:34:44;4.70;;;1.30;;
57309;SDS011;43153;50.984;18.204;2023-08-12T08:37:17;5.70;;;1.20;;
57309;SDS011;43153;50.984;18.204;2023-08-12T08:39:50;6.60;;;1.20;;
57309;SDS011;43153;50.984;18.204;2023-08-12T08:42:19;5.00;;;1.70;;
57309;SDS011;43153;50.984;18.204;2023-08-12T08:44:51;4.70;;;1.30;;
57309;SDS011;43153;50.984;18.204;2023-08-12T08:47:27;13.00;;;2.10;;
57309;SDS011;43153;50.984;18.204;2023-08-12T08:50:01;6.10;;;1.70;;
57309;SDS011;43153;50.984;18.204;2023-08-12T08:52:28;6.10;;;1.80;;
57309;SDS011;43153;50.984;18.204;2023-08-12T08:55:03;6.10;;;1.30;;
57309;SDS011;43153;50.984;18.204;2023-08-12T08:57:31;4.70;;;1.40;;
57309;SDS011;43153;50.984;18.204;2023-08-12T09:00:03;3.90;;;1.20;;
57309;SDS011;43153;50.984;18.204;2023-08-12T09:02:39;5.60;;;1.50;;
57309;SDS011;43153;50.984;18.204;2023-08-12T09:05:07;9.20;;;1.30;;
57309;SDS011;43153;50.984;18.204;2023-08-12T09:07:39;6.10;;;1.40;;
57309;SDS011;43153;50.984;18.204;2023-08-12T09:10:12;3.60;;;1.40;;
57309;SDS011;43153;50.984;18.204;2023-08-12T09:12:42;5.50;;;1.20;;
57309;SDS011;43153;50.984;18.204;2023-08-12T09:15:15;3.20;;;1.00;;
57309;SDS011;43153;50.984;18.204;2023-08-12T09:17:44;4.50;;;0.90;;
57309;SDS011;43153;50.984;18.204;2023-08-12T09:20:12;4.70;;;1.30;;
57309;SDS011;43153;50.984;18.204;2023-08-12T09:22:45;5.60;;;1.30;;
57309;SDS011;43153;50.984;18.204;2023-08-12T09:25:13;6.90;;;1.70;;
57309;SDS011;43153;50.984;18.204;2023-08-12T09:27:46;3.30;;;1.20;;
57309;SDS011;43153;50.984;18.204;2023-08-12T09:30:16;6.70;;;1.80;;
57309;SDS011;43153;50.984;18.204;2023-08-12T09:32:44;4.90;;;1.30;;
57309;SDS011;43153;50.984;18.204;2023-08-12T09:35:37;5.10;;;1.50;;
57309;SDS011;43153;50.984;18.204;2023-08-12T09:38:16;4.80;;;1.00;;
57309;SDS011;43153;50.984;18.204;2023-08-12T09:40:42;3.70;;;1.20;;
57309;SDS011;43153;50.984;18.204;2023-08-12T09:43:10;3.40;;;1.00;;
57309;SDS011;43153;50.984;18.204;2023-08-12T10:25:35;6.50;;;1.50;;
57309;SDS011;43153;50.984;18.204;2023-08-12T10:28:03;3.60;;;1.20;;
57309;SDS011;43153;50.984;18.204;2023-08-12T10:30:30;5.30;;;1.10;;
57309;SDS011;43153;50.984;18.204;2023-08-12T10:32:57;3.20;;;1.10;;
57309;SDS011;43153;50.984;18.204;2023-08-12T10:35:33;8.90;;;1.10;;
57309;SDS011;43153;50.984;18.204;2023-08-12T10:38:18;3.30;;;1.10;;
57309;SDS011;43153;50.984;18.204;2023-08-12T10:40:47;3.40;;;1.00;;
57309;SDS011;43153;50.984;18.204;2023-08-12T10:43:14;4.10;;;1.50;;
57309;SDS011;43153;50.984;18.204;2023-08-12T10:45:48;2.10;;;0.80;;
57309;SDS011;43153;50.984;18.204;2023-08-12T10:48:24;2.80;;;1.10;;
57309;SDS011;43153;50.984;18.204;2023-08-12T10:50:58;2.60;;;1.00;;
57309;SDS011;43153;50.984;18.204;2023-08-12T10:53:32;3.40;;;0.90;;
57309;SDS011;43153;50.984;18.204;2023-08-12T10:56:03;4.90;;;1.40;;
57309;SDS011;43153;50.984;18.204;2023-08-12T10:58:35;3.60;;;1.10;;
57309;SDS011;43153;50.984;18.204;2023-08-12T11:01:21;2.90;;;1.20;;
57309;SDS011;43153;50.984;18.204;2023-08-12T11:03:52;1.90;;;1.10;;
57309;SDS011;43153;50.984;18.204;2023-08-12T11:06:19;2.80;;;1.10;;
57309;SDS011;43153;50.984;18.204;2023-08-12T11:08:51;5.30;;;1.10;;
57309;SDS011;43153;50.984;18.204;2023-08-12T11:11:18;3.30;;;1.10;;
57309;SDS011;43153;50.984;18.204;2023-08-12T11:13:53;6.80;;;1.20;;
57309;SDS011;43153;50.984;18.204;2023-08-12T11:16:36;2.70;;;1.00;;
57309;SDS011;43153;50.984;18.204;2023-08-12T11:19:04;4.00;;;1.10;;
57309;SDS011;43153;50.984;18.204;2023-08-12T11:21:38;1.80;;;0.80;;
57309;SDS011;43153;50.984;18.204;2023-08-12T11:24:07;2.80;;;1.00;;
57309;SDS011;43153;50.984;18.204;2023-08-12T11:26:41;4.60;;;1.20;;
57309;SDS011;43153;50.984;18.204;2023-08-12T11:29:17;2.10;;;1.00;;
57309;SDS011;43153;50.984;18.204;2023-08-12T11:31:47;5.70;;;1.10;;
57309;SDS011;43153;50.984;18.204;2023-08-12T11:34:19;5.00;;;1.40;;
57309;SDS011;43153;50.984;18.204;2023-08-12T11:36:45;3.70;;;0.90;;
57309;SDS011;43153;50.984;18.204;2023-08-12T11:39:17;3.10;;;1.00;;
57309;SDS011;43153;50.984;18.204;2023-08-12T11:41:45;6.10;;;1.00;;
57309;SDS011;43153;50.984;18.204;2023-08-12T11:44:20;4.60;;;1.10;;
57309;SDS011;43153;50.984;18.204;2023-08-12T11:46:49;5.70;;;1.00;;
57309;SDS011;43153;50.984;18.204;2023-08-12T11:49:15;5.70;;;1.20;;
57309;SDS011;43153;50.984;18.204;2023-08-12T11:51:44;3.00;;;0.90;;
57309;SDS011;43153;50.984;18.204;2023-08-12T11:54:12;2.50;;;1.00;;
57309;SDS011;43153;50.984;18.204;2023-08-12T11:56:39;3.80;;;1.00;;
57309;SDS011;43153;50.984;18.204;2023-08-12T11:59:05;5.90;;;1.00;;
57309;SDS011;43153;50.984;18.204;2023-08-12T12:01:36;3.20;;;1.00;;
57309;SDS011;43153;50.984;18.204;2023-08-12T12:04:04;1.80;;;0.90;;
57309;SDS011;43153;50.984;18.204;2023-08-12T12:06:37;3.40;;;1.00;;
57309;SDS011;43153;50.984;18.204;2023-08-12T12:09:06;4.60;;;1.10;;
57309;SDS011;43153;50.984;18.204;2023-08-12T12:11:36;2.20;;;0.80;;
57309;SDS011;43153;50.984;18.204;2023-08-12T12:14:05;3.50;;;0.90;;
57309;SDS011;43153;50.984;18.204;2023-08-12T12:19:18;4.50;;;0.90;;
57309;SDS011;43153;50.984;18.204;2023-08-12T12:21:52;5.70;;;1.20;;
57309;SDS011;43153;50.984;18.204;2023-08-12T12:24:21;3.30;;;1.10;;
57309;SDS011;43153;50.984;18.204;2023-08-12T12:26:51;3.30;;;0.80;;
57309;SDS011;43153;50.984;18.204;2023-08-12T12:29:20;4.30;;;0.90;;
57309;SDS011;43153;50.984;18.204;2023-08-12T12:31:46;2.20;;;0.90;;
57309;SDS011;43153;50.984;18.204;2023-08-12T12:34:14;3.10;;;0.90;;
57309;SDS011;43153;50.984;18.204;2023-08-12T12:36:40;3.90;;;1.00;;
57309;SDS011;43153;50.984;18.204;2023-08-12T12:39:11;2.00;;;0.80;;
57309;SDS011;43153;50.984;18.204;2023-08-12T12:41:45;4.00;;;1.00;;
57309;SDS011;43153;50.984;18.204;2023-08-12T12:44:22;3.20;;;0.90;;
57309;SDS011;43153;50.984;18.204;2023-08-12T12:46:48;2.30;;;0.90;;
57309;SDS011;43153;50.984;18.204;2023-08-12T12:49:17;5.00;;;0.80;;
57309;SDS011;43153;50.984;18.204;2023-08-12T12:51:47;4.00;;;1.10;;
57309;SDS011;43153;50.984;18.204;2023-08-12T12:54:14;2.60;;;0.90;;
57309;SDS011;43153;50.984;18.204;2023-08-12T12:56:44;4.80;;;1.00;;
57309;SDS011;43153;50.984;18.204;2023-08-12T12:59:12;3.30;;;1.10;;
57309;SDS011;43153;50.984;18.204;2023-08-12T13:01:44;4.90;;;1.00;;
57309;SDS011;43153;50.984;18.204;2023-08-12T13:06:40;4.40;;;1.20;;
57309;SDS011;43153;50.984;18.204;2023-08-12T13:09:08;2.90;;;0.90;;
57309;SDS011;43153;50.984;18.204;2023-08-12T13:11:39;2.70;;;1.10;;
57309;SDS011;43153;50.984;18.204;2023-08-12T13:14:05;4.70;;;1.10;;
57309;SDS011;43153;50.984;18.204;2023-08-12T13:16:36;2.00;;;0.90;;
57309;SDS011;43153;50.984;18.204;2023-08-12T13:19:04;3.50;;;1.00;;
57309;SDS011;43153;50.984;18.204;2023-08-12T13:21:32;3.40;;;1.10;;
57309;SDS011;43153;50.984;18.204;2023-08-12T13:23:59;3.10;;;1.20;;
57309;SDS011;43153;50.984;18.204;2023-08-12T13:26:26;5.10;;;1.40;;
57309;SDS011;43153;50.984;18.204;2023-08-12T13:28:52;3.00;;;1.10;;
57309;SDS011;43153;50.984;18.204;2023-08-12T13:31:19;3.70;;;0.90;;
57309;SDS011;43153;50.984;18.204;2023-08-12T13:33:45;3.60;;;1.10;;
57309;SDS011;43153;50.984;18.204;2023-08-12T13:36:12;4.50;;;0.90;;
57309;SDS011;43153;50.984;18.204;2023-08-12T13:38:38;7.50;;;1.20;;
57309;SDS011;43153;50.984;18.204;2023-08-12T13:41:06;4.90;;;1.10;;
57309;SDS011;43153;50.984;18.204;2023-08-12T13:43:32;5.40;;;1.10;;
57309;SDS011;43153;50.984;18.204;2023-08-12T13:46:00;6.20;;;1.10;;
57309;SDS011;43153;50.984;18.204;2023-08-12T13:48:27;2.10;;;1.00;;
57309;SDS011;43153;50.984;18.204;2023-08-12T13:50:54;3.40;;;1.20;;
57309;SDS011;43153;50.984;18.204;2023-08-12T13:53:21;5.00;;;0.90;;
57309;SDS011;43153;50.984;18.204;2023-08-12T13:55:49;2.90;;;1.10;;
57309;SDS011;43153;50.984;18.204;2023-08-12T13:58:15;5.20;;;0.90;;
57309;SDS011;43153;50.984;18.204;2023-08-12T14:00:44;4.80;;;1.40;;
57309;SDS011;43153;50.984;18.204;2023-08-12T14:03:11;3.80;;;1.00;;
57309;SDS011;43153;50.984;18.204;2023-08-12T14:05:39;4.90;;;0.90;;
57309;SDS011;43153;50.984;18.204;2023-08-12T14:08:09;2.40;;;0.70;;
57309;SDS011;43153;50.984;18.204;2023-08-12T14:10:35;3.20;;;0.70;;
57309;SDS011;43153;50.984;18.204;2023-08-12T14:13:02;3.40;;;1.00;;
57309;SDS011;43153;50.984;18.204;2023-08-12T14:15:29;2.40;;;0.80;;
57309;SDS011;43153;50.984;18.204;2023-08-12T14:18:01;4.00;;;1.20;;
57309;SDS011;43153;50.984;18.204;2023-08-12T14:20:28;7.00;;;1.10;;
57309;SDS011;43153;50.984;18.204;2023-08-12T14:22:54;2.40;;;0.80;;
57309;SDS011;43153;50.984;18.204;2023-08-12T14:25:20;5.10;;;1.20;;
57309;SDS011;43153;50.984;18.204;2023-08-12T14:27:47;2.50;;;1.10;;
57309;SDS011;43153;50.984;18.204;2023-08-12T14:30:17;3.70;;;1.30;;
57309;SDS011;43153;50.984;18.204;2023-08-12T14:32:45;3.70;;;1.10;;
57309;SDS011;43153;50.984;18.204;2023-08-12T14:35:13;4.10;;;1.20;;
57309;SDS011;43153;50.984;18.204;2023-08-12T14:37:41;3.70;;;1.00;;
57309;SDS011;43153;50.984;18.204;2023-08-12T14:40:08;3.40;;;1.10;;
57309;SDS011;43153;50.984;18.204;2023-08-12T14:42:35;3.60;;;1.20;;
57309;SDS011;43153;50.984;18.204;2023-08-12T14:45:02;2.80;;;1.10;;
57309;SDS011;43153;50.984;18.204;2023-08-12T14:47:28;8.10;;;1.10;;
57309;SDS011;43153;50.984;18.204;2023-08-12T14:49:54;3.00;;;1.10;;
57309;SDS011;43153;50.984;18.204;2023-08-12T14:52:24;3.30;;;0.80;;
57309;SDS011;43153;50.984;18.204;2023-08-12T14:54:51;5.80;;;0.90;;
57309;SDS011;43153;50.984;18.204;2023-08-12T14:57:19;1.70;;;0.70;;
57309;SDS011;43153;50.984;18.204;2023-08-12T14:59:51;5.40;;;1.20;;
57309;SDS011;43153;50.984;18.204;2023-08-12T15:02:19;2.90;;;0.80;;
57309;SDS011;43153;50.984;18.204;2023-08-12T15:04:47;2.60;;;1.00;;
57309;SDS011;43153;50.984;18.204;2023-08-12T15:07:17;2.80;;;0.90;;
57309;SDS011;43153;50.984;18.204;2023-08-12T15:09:45;3.20;;;1.00;;
57309;SDS011;43153;50.984;18.204;2023-08-12T15:12:14;2.40;;;0.90;;
57309;SDS011;43153;50.984;18.204;2023-08-12T15:14:45;2.60;;;0.90;;
57309;SDS011;43153;50.984;18.204;2023-08-12T15:19:46;2.90;;;0.90;;
57309;SDS011;43153;50.984;18.204;2023-08-12T15:22:13;3.90;;;1.20;;
57309;SDS011;43153;50.984;18.204;2023-08-12T15:24:41;2.60;;;0.80;;
57309;SDS011;43153;50.984;18.204;2023-08-12T15:27:09;3.30;;;0.90;;
57309;SDS011;43153;50.984;18.204;2023-08-12T15:29:35;4.70;;;1.00;;
57309;SDS011;43153;50.984;18.204;2023-08-12T15:32:03;4.10;;;1.30;;
57309;SDS011;43153;50.984;18.204;2023-08-12T15:34:32;3.50;;;0.90;;
57309;SDS011;43153;50.984;18.204;2023-08-12T15:37:05;3.50;;;1.20;;
57309;SDS011;43153;50.984;18.204;2023-08-12T15:39:31;3.80;;;0.90;;
57309;SDS011;43153;50.984;18.204;2023-08-12T15:42:00;1.60;;;0.70;;
57309;SDS011;43153;50.984;18.204;2023-08-12T15:44:29;2.70;;;1.00;;